Time;durP1;ratioP1;P1;durP2;ratioP2;P2;SDS_P1;SDS_P2;PMS_P1;PMS_P2;Temp;Humidity;BMP_temperature;BMP_pressure;BME280_temperature;BME280_humidity;BME280_pressure;Samples;Min_cycle;Max_cycle;Signal;HPM_P1;HPM_P2
2021/03/11 00:00:38;;;;;;;10.6;6.5;;;;;;;0.88;66.51074;94945.22;;;;
2021/03/11 00:01:39;;;;;;;10.6;6.5;;;;;;;0.88;66.51074;94945.22;;;;
2021/03/11 00:02:39;;;;;;;10.6;6.5;;;;;;;0.88;66.51074;94945.22;;;;
2021/03/11 00:03:40;;;;;;;10.6;6.5;;;;;;;0.88;66.51074;94945.22;;;;
2021/03/11 00:04:42;;;;;;;10.6;6.5;;;;;;;0.88;66.51074;94945.22;;;;
2021/03/11 00:05:43;;;;;;;10.6;6.5;;;;;;;0.88;66.51074;94945.22;;;;
2021/03/11 00:06:44;;;;;;;10.6;6.5;;;;;;;0.88;66.51074;94945.22;;;;
2021/03/11 00:07:44;;;;;;;10.3;6.649999;;;;;;;0.82;66.60645;94928.59;;;;
2021/03/11 00:08:45;;;;;;;10.3;6.649999;;;;;;;0.82;66.60645;94928.59;;;;
2021/03/11 00:09:45;;;;;;;10.3;6.649999;;;;;;;0.82;66.60645;94928.59;;;;
2021/03/11 00:10:45;;;;;;;10.3;6.649999;;;;;;;0.82;66.60645;94928.59;;;;
2021/03/11 00:11:46;;;;;;;10.3;6.649999;;;;;;;0.82;66.60645;94928.59;;;;
2021/03/11 00:12:47;;;;;;;10.3;6.649999;;;;;;;0.82;66.60645;94928.59;;;;
2021/03/11 00:13:47;;;;;;;10.3;6.649999;;;;;;;0.82;66.60645;94928.59;;;;
2021/03/11 00:14:48;;;;;;;10.3;6.649999;;;;;;;0.82;66.60645;94928.59;;;;
2021/03/11 00:15:48;;;;;;;10.3;6.649999;;;;;;;0.82;66.60645;94928.59;;;;
2021/03/11 00:16:49;;;;;;;10.3;6.649999;;;;;;;0.82;66.60645;94928.59;;;;
2021/03/11 00:17:49;;;;;;;10.3;6.649999;;;;;;;0.82;66.60645;94928.59;;;;
2021/03/11 00:18:50;;;;;;;9.55;6.000001;;;;;;;0.71;66.65137;94924.25;;;;
2021/03/11 00:19:51;;;;;;;9.55;6.000001;;;;;;;0.71;66.65137;94924.25;;;;
2021/03/11 00:20:51;;;;;;;9.55;6.000001;;;;;;;0.71;66.65137;94924.25;;;;
2021/03/11 00:21:52;;;;;;;9.55;6.000001;;;;;;;0.71;66.65137;94924.25;;;;
2021/03/11 00:22:52;;;;;;;9.55;6.000001;;;;;;;0.71;66.65137;94924.25;;;;
2021/03/11 00:23:54;;;;;;;9.55;6.000001;;;;;;;0.71;66.65137;94924.25;;;;
2021/03/11 00:24:55;;;;;;;9.55;6.000001;;;;;;;0.71;66.65137;94924.25;;;;
2021/03/11 00:25:55;;;;;;;9.55;6.000001;;;;;;;0.71;66.65137;94924.25;;;;
2021/03/11 00:26:56;;;;;;;9.55;6.000001;;;;;;;0.71;66.65137;94924.25;;;;
2021/03/11 00:27:56;;;;;;;9.55;6.000001;;;;;;;0.71;66.65137;94924.25;;;;
2021/03/11 00:28:57;;;;;;;9.95;5.849999;;;;;;;0.63;66.73242;94917.3;;;;
2021/03/11 00:29:58;;;;;;;9.95;5.849999;;;;;;;0.63;66.73242;94917.3;;;;
2021/03/11 00:30:58;;;;;;;9.95;5.849999;;;;;;;0.63;66.73242;94917.3;;;;
2021/03/11 00:31:59;;;;;;;9.95;5.849999;;;;;;;0.63;66.73242;94917.3;;;;
2021/03/11 00:32:59;;;;;;;9.95;5.849999;;;;;;;0.63;66.73242;94917.3;;;;
2021/03/11 00:34:00;;;;;;;9.95;5.849999;;;;;;;0.63;66.73242;94917.3;;;;
2021/03/11 00:35:00;;;;;;;9.95;5.849999;;;;;;;0.63;66.73242;94917.3;;;;
2021/03/11 00:36:01;;;;;;;9.95;5.849999;;;;;;;0.63;66.73242;94917.3;;;;
2021/03/11 00:37:02;;;;;;;9.95;5.849999;;;;;;;0.63;66.73242;94917.3;;;;
2021/03/11 00:38:03;;;;;;;9.95;5.849999;;;;;;;0.63;66.73242;94917.3;;;;
2021/03/11 00:39:03;;;;;;;9.95;5.849999;;;;;;;0.63;66.73242;94917.3;;;;
2021/03/11 00:40:06;;;;;;;11.15;5.7;;;;;;;0.53;66.77051;94921.14;;;;
2021/03/11 00:41:11;;;;;;;11.15;5.7;;;;;;;0.53;66.77051;94921.14;;;;
2021/03/11 00:42:11;;;;;;;11.15;5.7;;;;;;;0.53;66.77051;94921.14;;;;
2021/03/11 00:43:14;;;;;;;11.15;5.7;;;;;;;0.53;66.77051;94921.14;;;;
2021/03/11 00:44:14;;;;;;;11.15;5.7;;;;;;;0.53;66.77051;94921.14;;;;
2021/03/11 00:45:15;;;;;;;11.15;5.7;;;;;;;0.53;66.77051;94921.14;;;;
2021/03/11 00:46:16;;;;;;;11.15;5.7;;;;;;;0.53;66.77051;94921.14;;;;
2021/03/11 00:47:17;;;;;;;11.15;5.7;;;;;;;0.53;66.77051;94921.14;;;;
2021/03/11 00:48:18;;;;;;;11.15;5.7;;;;;;;0.53;66.77051;94921.14;;;;
2021/03/11 00:49:19;;;;;;;11.15;5.7;;;;;;;0.53;66.77051;94921.14;;;;
2021/03/11 00:50:19;;;;;;;8.900001;5.200001;;;;;;;0.42;66.80469;94907.4;;;;
2021/03/11 00:51:22;;;;;;;8.900001;5.200001;;;;;;;0.42;66.80469;94907.4;;;;
2021/03/11 00:52:23;;;;;;;8.900001;5.200001;;;;;;;0.42;66.80469;94907.4;;;;
2021/03/11 00:53:23;;;;;;;8.900001;5.200001;;;;;;;0.42;66.80469;94907.4;;;;
2021/03/11 00:54:24;;;;;;;8.900001;5.200001;;;;;;;0.42;66.80469;94907.4;;;;
2021/03/11 00:55:24;;;;;;;8.900001;5.200001;;;;;;;0.42;66.80469;94907.4;;;;
2021/03/11 00:56:24;;;;;;;8.900001;5.200001;;;;;;;0.42;66.80469;94907.4;;;;
2021/03/11 00:57:25;;;;;;;8.900001;5.200001;;;;;;;0.42;66.80469;94907.4;;;;
2021/03/11 00:58:25;;;;;;;8.900001;5.200001;;;;;;;0.42;66.80469;94907.4;;;;
2021/03/11 00:59:26;;;;;;;8.900001;5.200001;;;;;;;0.42;66.80469;94907.4;;;;
2021/03/11 01:00:26;;;;;;;8.900001;5.200001;;;;;;;0.42;66.80469;94907.4;;;;
2021/03/11 01:01:27;;;;;;;7.3;4.800001;;;;;;;0.4;66.78223;94895.23;;;;
2021/03/11 01:02:28;;;;;;;7.3;4.800001;;;;;;;0.4;66.78223;94895.23;;;;
2021/03/11 01:03:28;;;;;;;7.3;4.800001;;;;;;;0.4;66.78223;94895.23;;;;
2021/03/11 01:04:29;;;;;;;7.3;4.800001;;;;;;;0.4;66.78223;94895.23;;;;
2021/03/11 01:05:29;;;;;;;7.3;4.800001;;;;;;;0.4;66.78223;94895.23;;;;
2021/03/11 01:06:32;;;;;;;7.3;4.800001;;;;;;;0.4;66.78223;94895.23;;;;
2021/03/11 01:07:33;;;;;;;7.3;4.800001;;;;;;;0.4;66.78223;94895.23;;;;
2021/03/11 01:08:33;;;;;;;7.3;4.800001;;;;;;;0.4;66.78223;94895.23;;;;
2021/03/11 01:09:34;;;;;;;7.3;4.800001;;;;;;;0.4;66.78223;94895.23;;;;
2021/03/11 01:10:35;;;;;;;7.3;4.800001;;;;;;;0.4;66.78223;94895.23;;;;
2021/03/11 01:11:36;;;;;;;7.100001;4.95;;;;;;;0.48;66.73145;94887.61;;;;
2021/03/11 01:12:36;;;;;;;7.100001;4.95;;;;;;;0.48;66.73145;94887.61;;;;
2021/03/11 01:13:37;;;;;;;7.100001;4.95;;;;;;;0.48;66.73145;94887.61;;;;
2021/03/11 01:14:37;;;;;;;7.100001;4.95;;;;;;;0.48;66.73145;94887.61;;;;
2021/03/11 01:15:38;;;;;;;7.100001;4.95;;;;;;;0.48;66.73145;94887.61;;;;
2021/03/11 01:16:40;;;;;;;7.100001;4.95;;;;;;;0.48;66.73145;94887.61;;;;
2021/03/11 01:17:43;;;;;;;7.100001;4.95;;;;;;;0.48;66.73145;94887.61;;;;
2021/03/11 01:18:43;;;;;;;7.100001;4.95;;;;;;;0.48;66.73145;94887.61;;;;
2021/03/11 01:19:44;;;;;;;7.100001;4.95;;;;;;;0.48;66.73145;94887.61;;;;
2021/03/11 01:20:44;;;;;;;7.100001;4.95;;;;;;;0.48;66.73145;94887.61;;;;
2021/03/11 01:21:45;;;;;;;7.100001;4.95;;;;;;;0.48;66.73145;94887.61;;;;
2021/03/11 01:22:45;;;;;;;7.45;4.3;;;;;;;0.55;66.57422;94884.11;;;;
2021/03/11 01:23:46;;;;;;;7.45;4.3;;;;;;;0.55;66.57422;94884.11;;;;
2021/03/11 01:24:47;;;;;;;7.45;4.3;;;;;;;0.55;66.57422;94884.11;;;;
2021/03/11 01:25:47;;;;;;;7.45;4.3;;;;;;;0.55;66.57422;94884.11;;;;
2021/03/11 01:26:48;;;;;;;7.45;4.3;;;;;;;0.55;66.57422;94884.11;;;;
2021/03/11 01:27:48;;;;;;;7.45;4.3;;;;;;;0.55;66.57422;94884.11;;;;
2021/03/11 01:28:49;;;;;;;7.45;4.3;;;;;;;0.55;66.57422;94884.11;;;;
2021/03/11 01:29:50;;;;;;;7.45;4.3;;;;;;;0.55;66.57422;94884.11;;;;
2021/03/11 01:30:50;;;;;;;7.45;4.3;;;;;;;0.55;66.57422;94884.11;;;;
2021/03/11 01:31:51;;;;;;;7.45;4.3;;;;;;;0.55;66.57422;94884.11;;;;
2021/03/11 01:32:51;;;;;;;4.7;3.7;;;;;;;0.61;66.55176;94874.16;;;;
2021/03/11 01:33:52;;;;;;;4.7;3.7;;;;;;;0.61;66.55176;94874.16;;;;
2021/03/11 01:34:52;;;;;;;4.7;3.7;;;;;;;0.61;66.55176;94874.16;;;;
2021/03/11 01:35:53;;;;;;;4.7;3.7;;;;;;;0.61;66.55176;94874.16;;;;
2021/03/11 01:36:53;;;;;;;4.7;3.7;;;;;;;0.61;66.55176;94874.16;;;;
2021/03/11 01:37:54;;;;;;;4.7;3.7;;;;;;;0.61;66.55176;94874.16;;;;
2021/03/11 01:38:54;;;;;;;4.7;3.7;;;;;;;0.61;66.55176;94874.16;;;;
2021/03/11 01:39:55;;;;;;;4.7;3.7;;;;;;;0.61;66.55176;94874.16;;;;
2021/03/11 01:40:55;;;;;;;4.7;3.7;;;;;;;0.61;66.55176;94874.16;;;;
2021/03/11 01:41:56;;;;;;;4.7;3.7;;;;;;;0.61;66.55176;94874.16;;;;
2021/03/11 01:42:56;;;;;;;4.7;3.7;;;;;;;0.61;66.55176;94874.16;;;;
2021/03/11 01:43:57;;;;;;;4.95;3.4;;;;;;;0.64;66.57715;94855.19;;;;
2021/03/11 01:44:57;;;;;;;4.95;3.4;;;;;;;0.64;66.57715;94855.19;;;;
2021/03/11 01:45:58;;;;;;;4.95;3.4;;;;;;;0.64;66.57715;94855.19;;;;
2021/03/11 01:46:58;;;;;;;4.95;3.4;;;;;;;0.64;66.57715;94855.19;;;;
2021/03/11 01:47:59;;;;;;;4.95;3.4;;;;;;;0.64;66.57715;94855.19;;;;
2021/03/11 01:49:00;;;;;;;4.95;3.4;;;;;;;0.64;66.57715;94855.19;;;;
2021/03/11 01:50:00;;;;;;;4.95;3.4;;;;;;;0.64;66.57715;94855.19;;;;
2021/03/11 01:51:01;;;;;;;4.95;3.4;;;;;;;0.64;66.57715;94855.19;;;;
2021/03/11 01:52:02;;;;;;;4.95;3.4;;;;;;;0.64;66.57715;94855.19;;;;
2021/03/11 01:53:03;;;;;;;4.95;3.4;;;;;;;0.64;66.57715;94855.19;;;;
2021/03/11 01:54:03;;;;;;;4.7;2.85;;;;;;;0.81;66.69922;94849.08;;;;
2021/03/11 01:55:05;;;;;;;4.7;2.85;;;;;;;0.81;66.69922;94849.08;;;;
2021/03/11 01:56:07;;;;;;;4.7;2.85;;;;;;;0.81;66.69922;94849.08;;;;
2021/03/11 01:57:08;;;;;;;4.7;2.85;;;;;;;0.81;66.69922;94849.08;;;;
2021/03/11 01:58:09;;;;;;;4.7;2.85;;;;;;;0.81;66.69922;94849.08;;;;
2021/03/11 01:59:10;;;;;;;4.7;2.85;;;;;;;0.81;66.69922;94849.08;;;;
2021/03/11 02:00:10;;;;;;;4.7;2.85;;;;;;;0.81;66.69922;94849.08;;;;
2021/03/11 02:01:13;;;;;;;4.7;2.85;;;;;;;0.81;66.69922;94849.08;;;;
2021/03/11 02:02:13;;;;;;;4.7;2.85;;;;;;;0.81;66.69922;94849.08;;;;
2021/03/11 02:03:15;;;;;;;4.7;2.85;;;;;;;0.81;66.69922;94849.08;;;;
2021/03/11 02:04:16;;;;;;;4.7;2.85;;;;;;;0.81;66.69922;94849.08;;;;
2021/03/11 02:05:17;;;;;;;3.85;2.8;;;;;;;1.11;66.68164;94860.43;;;;
2021/03/11 02:06:19;;;;;;;3.85;2.8;;;;;;;1.11;66.68164;94860.43;;;;
2021/03/11 02:07:20;;;;;;;3.85;2.8;;;;;;;1.11;66.68164;94860.43;;;;
2021/03/11 02:08:20;;;;;;;3.85;2.8;;;;;;;1.11;66.68164;94860.43;;;;
2021/03/11 02:09:21;;;;;;;3.85;2.8;;;;;;;1.11;66.68164;94860.43;;;;
2021/03/11 02:10:22;;;;;;;3.85;2.8;;;;;;;1.11;66.68164;94860.43;;;;
2021/03/11 02:11:25;;;;;;;3.85;2.8;;;;;;;1.11;66.68164;94860.43;;;;
2021/03/11 02:12:27;;;;;;;3.85;2.8;;;;;;;1.11;66.68164;94860.43;;;;
2021/03/11 02:13:34;;;;;;;3.85;2.8;;;;;;;1.11;66.68164;94860.43;;;;
2021/03/11 02:14:41;;;;;;;3.85;2.8;;;;;;;1.11;66.68164;94860.43;;;;
2021/03/11 02:15:52;;;;;;;4.450001;2.8;;;;;;;1.38;66.36914;94862.27;;;;
2021/03/11 02:17:00;;;;;;;4.450001;2.8;;;;;;;1.38;66.36914;94862.27;;;;
2021/03/11 02:18:03;;;;;;;4.450001;2.8;;;;;;;1.38;66.36914;94862.27;;;;
2021/03/11 02:19:08;;;;;;;4.450001;2.8;;;;;;;1.38;66.36914;94862.27;;;;
2021/03/11 02:20:23;;;;;;;4.450001;2.8;;;;;;;1.38;66.36914;94862.27;;;;
2021/03/11 02:21:41;;;;;;;4.450001;2.8;;;;;;;1.38;66.36914;94862.27;;;;
2021/03/11 02:22:48;;;;;;;4.450001;2.8;;;;;;;1.38;66.36914;94862.27;;;;
2021/03/11 02:24:07;;;;;;;4.450001;2.8;;;;;;;1.38;66.36914;94862.27;;;;
2021/03/11 02:25:21;;;;;;;4.450001;2.8;;;;;;;1.38;66.36914;94862.27;;;;
2021/03/11 02:26:31;;;;;;;3;2.45;;;;;;;1.65;66.20898;94829.22;;;;
2021/03/11 02:28:49;;;;;;;3;2.45;;;;;;;1.65;66.20898;94829.22;;;;
2021/03/11 02:29:56;;;;;;;3;2.45;;;;;;;1.65;66.20898;94829.22;;;;
2021/03/11 02:30:57;;;;;;;3;2.45;;;;;;;1.65;66.20898;94829.22;;;;
2021/03/11 02:31:58;;;;;;;3;2.45;;;;;;;1.65;66.20898;94829.22;;;;
2021/03/11 02:33:01;;;;;;;3;2.45;;;;;;;1.65;66.20898;94829.22;;;;
2021/03/11 02:34:05;;;;;;;3;2.45;;;;;;;1.65;66.20898;94829.22;;;;
2021/03/11 02:35:13;;;;;;;3;2.45;;;;;;;1.65;66.20898;94829.22;;;;
2021/03/11 02:36:15;;;;;;;3;2.45;;;;;;;1.65;66.20898;94829.22;;;;
2021/03/11 02:37:16;;;;;;;4;2.7;;;;;;;1.96;66.00488;94777.76;;;;
2021/03/11 02:38:22;;;;;;;4;2.7;;;;;;;1.96;66.00488;94777.76;;;;
2021/03/11 02:39:23;;;;;;;4;2.7;;;;;;;1.96;66.00488;94777.76;;;;
2021/03/11 02:40:27;;;;;;;4;2.7;;;;;;;1.96;66.00488;94777.76;;;;
2021/03/11 02:41:30;;;;;;;4;2.7;;;;;;;1.96;66.00488;94777.76;;;;
2021/03/11 02:42:31;;;;;;;4;2.7;;;;;;;1.96;66.00488;94777.76;;;;
2021/03/11 02:43:33;;;;;;;4;2.7;;;;;;;1.96;66.00488;94777.76;;;;
2021/03/11 02:44:34;;;;;;;4;2.7;;;;;;;1.96;66.00488;94777.76;;;;
2021/03/11 02:45:37;;;;;;;4;2.7;;;;;;;1.96;66.00488;94777.76;;;;
2021/03/11 02:46:38;;;;;;;4;2.7;;;;;;;1.96;66.00488;94777.76;;;;
2021/03/11 02:47:40;;;;;;;3.25;2.55;;;;;;;2.18;65.80859;94753.62;;;;
2021/03/11 02:48:43;;;;;;;3.25;2.55;;;;;;;2.18;65.80859;94753.62;;;;
2021/03/11 02:49:45;;;;;;;3.25;2.55;;;;;;;2.18;65.80859;94753.62;;;;
2021/03/11 02:50:47;;;;;;;3.25;2.55;;;;;;;2.18;65.80859;94753.62;;;;
2021/03/11 02:51:49;;;;;;;3.25;2.55;;;;;;;2.18;65.80859;94753.62;;;;
2021/03/11 02:52:51;;;;;;;3.25;2.55;;;;;;;2.18;65.80859;94753.62;;;;
2021/03/11 02:53:52;;;;;;;3.25;2.55;;;;;;;2.18;65.80859;94753.62;;;;
2021/03/11 02:54:54;;;;;;;3.25;2.55;;;;;;;2.18;65.80859;94753.62;;;;
2021/03/11 02:55:56;;;;;;;3.25;2.55;;;;;;;2.18;65.80859;94753.62;;;;
2021/03/11 02:56:58;;;;;;;3.25;2.55;;;;;;;2.18;65.80859;94753.62;;;;
2021/03/11 02:58:00;;;;;;;3.25;2.55;;;;;;;2.18;65.80859;94753.62;;;;
2021/03/11 02:59:02;;;;;;;3.7;2.25;;;;;;;2.36;65.74121;94752.95;;;;
2021/03/11 03:00:06;;;;;;;3.7;2.25;;;;;;;2.36;65.74121;94752.95;;;;
2021/03/11 03:01:10;;;;;;;3.7;2.25;;;;;;;2.36;65.74121;94752.95;;;;
2021/03/11 03:02:15;;;;;;;3.7;2.25;;;;;;;2.36;65.74121;94752.95;;;;
2021/03/11 03:03:15;;;;;;;3.7;2.25;;;;;;;2.36;65.74121;94752.95;;;;
2021/03/11 03:04:16;;;;;;;3.7;2.25;;;;;;;2.36;65.74121;94752.95;;;;
2021/03/11 03:05:17;;;;;;;3.7;2.25;;;;;;;2.36;65.74121;94752.95;;;;
2021/03/11 03:06:20;;;;;;;3.7;2.25;;;;;;;2.36;65.74121;94752.95;;;;
2021/03/11 03:07:21;;;;;;;3.7;2.25;;;;;;;2.36;65.74121;94752.95;;;;
2021/03/11 03:08:24;;;;;;;3.7;2.25;;;;;;;2.36;65.74121;94752.95;;;;
2021/03/11 03:09:26;;;;;;;3.6;2.75;;;;;;;2.61;65.83301;94709.72;;;;
2021/03/11 03:10:28;;;;;;;3.6;2.75;;;;;;;2.61;65.83301;94709.72;;;;
2021/03/11 03:11:31;;;;;;;3.6;2.75;;;;;;;2.61;65.83301;94709.72;;;;
2021/03/11 03:12:34;;;;;;;3.6;2.75;;;;;;;2.61;65.83301;94709.72;;;;
2021/03/11 03:13:36;;;;;;;3.6;2.75;;;;;;;2.61;65.83301;94709.72;;;;
2021/03/11 03:14:40;;;;;;;3.6;2.75;;;;;;;2.61;65.83301;94709.72;;;;
2021/03/11 03:15:41;;;;;;;3.6;2.75;;;;;;;2.61;65.83301;94709.72;;;;
2021/03/11 03:16:43;;;;;;;3.6;2.75;;;;;;;2.61;65.83301;94709.72;;;;
2021/03/11 03:17:44;;;;;;;3.6;2.75;;;;;;;2.61;65.83301;94709.72;;;;
2021/03/11 03:18:47;;;;;;;3.6;2.75;;;;;;;2.61;65.83301;94709.72;;;;
2021/03/11 03:19:48;;;;;;;4.299999;2.85;;;;;;;3.16;65.63281;94716.97;;;;
2021/03/11 03:20:50;;;;;;;4.299999;2.85;;;;;;;3.16;65.63281;94716.97;;;;
2021/03/11 03:21:52;;;;;;;4.299999;2.85;;;;;;;3.16;65.63281;94716.97;;;;
2021/03/11 03:22:53;;;;;;;4.299999;2.85;;;;;;;3.16;65.63281;94716.97;;;;
2021/03/11 03:23:53;;;;;;;4.299999;2.85;;;;;;;3.16;65.63281;94716.97;;;;
2021/03/11 03:24:55;;;;;;;4.299999;2.85;;;;;;;3.16;65.63281;94716.97;;;;
2021/03/11 03:25:56;;;;;;;4.299999;2.85;;;;;;;3.16;65.63281;94716.97;;;;
2021/03/11 03:26:57;;;;;;;4.299999;2.85;;;;;;;3.16;65.63281;94716.97;;;;
2021/03/11 03:27:57;;;;;;;4.299999;2.85;;;;;;;3.16;65.63281;94716.97;;;;
2021/03/11 03:28:58;;;;;;;4.299999;2.85;;;;;;;3.16;65.63281;94716.97;;;;
2021/03/11 03:29:59;;;;;;;4.299999;2.85;;;;;;;3.16;65.63281;94716.97;;;;
2021/03/11 03:30:59;;;;;;;4.5;3;;;;;;;3.56;65.10156;94687.5;;;;
2021/03/11 03:32:00;;;;;;;4.5;3;;;;;;;3.56;65.10156;94687.5;;;;
2021/03/11 03:33:01;;;;;;;4.5;3;;;;;;;3.56;65.10156;94687.5;;;;
2021/03/11 03:34:02;;;;;;;4.5;3;;;;;;;3.56;65.10156;94687.5;;;;
2021/03/11 03:35:03;;;;;;;4.5;3;;;;;;;3.56;65.10156;94687.5;;;;
2021/03/11 03:36:05;;;;;;;4.5;3;;;;;;;3.56;65.10156;94687.5;;;;
2021/03/11 03:37:06;;;;;;;4.5;3;;;;;;;3.56;65.10156;94687.5;;;;
2021/03/11 03:38:07;;;;;;;4.5;3;;;;;;;3.56;65.10156;94687.5;;;;
2021/03/11 03:39:09;;;;;;;4.5;3;;;;;;;3.56;65.10156;94687.5;;;;
2021/03/11 03:40:10;;;;;;;4.5;3;;;;;;;3.56;65.10156;94687.5;;;;
2021/03/11 03:41:13;;;;;;;4.7;2.95;;;;;;;3.87;64.90625;94671.6;;;;
2021/03/11 03:42:14;;;;;;;4.7;2.95;;;;;;;3.87;64.90625;94671.6;;;;
2021/03/11 03:43:15;;;;;;;4.7;2.95;;;;;;;3.87;64.90625;94671.6;;;;
2021/03/11 03:44:21;;;;;;;4.7;2.95;;;;;;;3.87;64.90625;94671.6;;;;
2021/03/11 03:45:24;;;;;;;4.7;2.95;;;;;;;3.87;64.90625;94671.6;;;;
2021/03/11 03:46:28;;;;;;;4.7;2.95;;;;;;;3.87;64.90625;94671.6;;;;
2021/03/11 03:47:29;;;;;;;4.7;2.95;;;;;;;3.87;64.90625;94671.6;;;;
2021/03/11 03:48:29;;;;;;;4.7;2.95;;;;;;;3.87;64.90625;94671.6;;;;
2021/03/11 03:49:38;;;;;;;4.7;2.95;;;;;;;3.87;64.90625;94671.6;;;;
2021/03/11 03:50:40;;;;;;;4.7;2.95;;;;;;;3.87;64.90625;94671.6;;;;
2021/03/11 03:51:44;;;;;;;5.349999;2.85;;;;;;;4.3;64.41113;94677.09;;;;
2021/03/11 03:52:48;;;;;;;5.349999;2.85;;;;;;;4.3;64.41113;94677.09;;;;
2021/03/11 03:53:50;;;;;;;5.349999;2.85;;;;;;;4.3;64.41113;94677.09;;;;
2021/03/11 03:54:56;;;;;;;5.349999;2.85;;;;;;;4.3;64.41113;94677.09;;;;
2021/03/11 03:55:58;;;;;;;5.349999;2.85;;;;;;;4.3;64.41113;94677.09;;;;
2021/03/11 03:57:01;;;;;;;5.349999;2.85;;;;;;;4.3;64.41113;94677.09;;;;
2021/03/11 03:58:06;;;;;;;5.349999;2.85;;;;;;;4.3;64.41113;94677.09;;;;
2021/03/11 03:59:07;;;;;;;5.349999;2.85;;;;;;;4.3;64.41113;94677.09;;;;
2021/03/11 04:00:12;;;;;;;5.349999;2.85;;;;;;;4.3;64.41113;94677.09;;;;
2021/03/11 04:01:14;;;;;;;5.349999;2.85;;;;;;;4.3;64.41113;94677.09;;;;
2021/03/11 04:02:16;;;;;;;4.75;3.05;;;;;;;4.54;63.98047;94667.52;;;;
2021/03/11 04:03:17;;;;;;;4.75;3.05;;;;;;;4.54;63.98047;94667.52;;;;
2021/03/11 04:04:19;;;;;;;4.75;3.05;;;;;;;4.54;63.98047;94667.52;;;;
2021/03/11 04:05:20;;;;;;;4.75;3.05;;;;;;;4.54;63.98047;94667.52;;;;
2021/03/11 04:06:22;;;;;;;4.75;3.05;;;;;;;4.54;63.98047;94667.52;;;;
2021/03/11 04:07:23;;;;;;;4.75;3.05;;;;;;;4.54;63.98047;94667.52;;;;
2021/03/11 04:08:25;;;;;;;4.75;3.05;;;;;;;4.54;63.98047;94667.52;;;;
2021/03/11 04:09:27;;;;;;;4.75;3.05;;;;;;;4.54;63.98047;94667.52;;;;
2021/03/11 04:10:29;;;;;;;4.75;3.05;;;;;;;4.54;63.98047;94667.52;;;;
2021/03/11 04:11:30;;;;;;;4.75;3.05;;;;;;;4.54;63.98047;94667.52;;;;
2021/03/11 04:12:31;;;;;;;4.75;3.05;;;;;;;4.54;63.98047;94667.52;;;;
2021/03/11 04:13:33;;;;;;;4.35;3;;;;;;;4.64;63.78418;94637.53;;;;
2021/03/11 04:14:34;;;;;;;4.35;3;;;;;;;4.64;63.78418;94637.53;;;;
2021/03/11 04:15:36;;;;;;;4.35;3;;;;;;;4.64;63.78418;94637.53;;;;
2021/03/11 04:16:38;;;;;;;4.35;3;;;;;;;4.64;63.78418;94637.53;;;;
2021/03/11 04:17:40;;;;;;;4.35;3;;;;;;;4.64;63.78418;94637.53;;;;
2021/03/11 04:18:43;;;;;;;4.35;3;;;;;;;4.64;63.78418;94637.53;;;;
2021/03/11 04:19:45;;;;;;;4.35;3;;;;;;;4.64;63.78418;94637.53;;;;
2021/03/11 04:20:46;;;;;;;4.35;3;;;;;;;4.64;63.78418;94637.53;;;;
2021/03/11 04:21:47;;;;;;;4.35;3;;;;;;;4.64;63.78418;94637.53;;;;
2021/03/11 04:22:48;;;;;;;4.35;3;;;;;;;4.64;63.78418;94637.53;;;;
2021/03/11 04:23:49;;;;;;;4.75;3.35;;;;;;;4.73;63.56445;94613.13;;;;
2021/03/11 04:24:50;;;;;;;4.75;3.35;;;;;;;4.73;63.56445;94613.13;;;;
2021/03/11 04:25:51;;;;;;;4.75;3.35;;;;;;;4.73;63.56445;94613.13;;;;
2021/03/11 04:26:52;;;;;;;4.75;3.35;;;;;;;4.73;63.56445;94613.13;;;;
2021/03/11 04:27:52;;;;;;;4.75;3.35;;;;;;;4.73;63.56445;94613.13;;;;
2021/03/11 04:28:53;;;;;;;4.75;3.35;;;;;;;4.73;63.56445;94613.13;;;;
2021/03/11 04:29:54;;;;;;;4.75;3.35;;;;;;;4.73;63.56445;94613.13;;;;
2021/03/11 04:30:55;;;;;;;4.75;3.35;;;;;;;4.73;63.56445;94613.13;;;;
2021/03/11 04:31:56;;;;;;;4.75;3.35;;;;;;;4.73;63.56445;94613.13;;;;
2021/03/11 04:32:58;;;;;;;4.75;3.35;;;;;;;4.73;63.56445;94613.13;;;;
2021/03/11 04:33:59;;;;;;;4.75;3.35;;;;;;;4.73;63.56445;94613.13;;;;
2021/03/11 04:35:00;;;;;;;3.5;2.95;;;;;;;4.74;63.62012;94596.87;;;;
2021/03/11 04:36:00;;;;;;;3.5;2.95;;;;;;;4.74;63.62012;94596.87;;;;
2021/03/11 04:37:02;;;;;;;3.5;2.95;;;;;;;4.74;63.62012;94596.87;;;;
2021/03/11 04:38:03;;;;;;;3.5;2.95;;;;;;;4.74;63.62012;94596.87;;;;
2021/03/11 04:39:05;;;;;;;3.5;2.95;;;;;;;4.74;63.62012;94596.87;;;;
2021/03/11 04:40:06;;;;;;;3.5;2.95;;;;;;;4.74;63.62012;94596.87;;;;
2021/03/11 04:41:08;;;;;;;3.5;2.95;;;;;;;4.74;63.62012;94596.87;;;;
2021/03/11 04:42:10;;;;;;;3.5;2.95;;;;;;;4.74;63.62012;94596.87;;;;
2021/03/11 04:43:11;;;;;;;3.5;2.95;;;;;;;4.74;63.62012;94596.87;;;;
2021/03/11 04:44:12;;;;;;;3.5;2.95;;;;;;;4.74;63.62012;94596.87;;;;
2021/03/11 04:45:14;;;;;;;6.95;2.85;;;;;;;4.75;63.61035;94563.86;;;;
2021/03/11 04:46:15;;;;;;;6.95;2.85;;;;;;;4.75;63.61035;94563.86;;;;
2021/03/11 04:47:18;;;;;;;6.95;2.85;;;;;;;4.75;63.61035;94563.86;;;;
2021/03/11 04:48:20;;;;;;;6.95;2.85;;;;;;;4.75;63.61035;94563.86;;;;
2021/03/11 04:49:21;;;;;;;6.95;2.85;;;;;;;4.75;63.61035;94563.86;;;;
2021/03/11 04:50:24;;;;;;;6.95;2.85;;;;;;;4.75;63.61035;94563.86;;;;
2021/03/11 04:51:25;;;;;;;6.95;2.85;;;;;;;4.75;63.61035;94563.86;;;;
2021/03/11 04:52:26;;;;;;;6.95;2.85;;;;;;;4.75;63.61035;94563.86;;;;
2021/03/11 04:53:27;;;;;;;6.95;2.85;;;;;;;4.75;63.61035;94563.86;;;;
2021/03/11 04:54:28;;;;;;;6.95;2.85;;;;;;;4.75;63.61035;94563.86;;;;
2021/03/11 04:55:30;;;;;;;3.4;2.5;;;;;;;4.8;63.50098;94564.01;;;;
2021/03/11 04:56:31;;;;;;;3.4;2.5;;;;;;;4.8;63.50098;94564.01;;;;
2021/03/11 04:57:33;;;;;;;3.4;2.5;;;;;;;4.8;63.50098;94564.01;;;;
2021/03/11 04:58:34;;;;;;;3.4;2.5;;;;;;;4.8;63.50098;94564.01;;;;
2021/03/11 04:59:34;;;;;;;3.4;2.5;;;;;;;4.8;63.50098;94564.01;;;;
2021/03/11 05:00:36;;;;;;;3.4;2.5;;;;;;;4.8;63.50098;94564.01;;;;
2021/03/11 05:01:38;;;;;;;3.4;2.5;;;;;;;4.8;63.50098;94564.01;;;;
2021/03/11 05:02:43;;;;;;;3.4;2.5;;;;;;;4.8;63.50098;94564.01;;;;
2021/03/11 05:03:45;;;;;;;3.4;2.5;;;;;;;4.8;63.50098;94564.01;;;;
2021/03/11 05:04:46;;;;;;;3.4;2.5;;;;;;;4.8;63.50098;94564.01;;;;
2021/03/11 05:05:47;;;;;;;3.4;2.5;;;;;;;4.8;63.50098;94564.01;;;;
2021/03/11 05:06:48;;;;;;;3;1.95;;;;;;;4.96;63.19629;94578.59;;;;
2021/03/11 05:07:48;;;;;;;3;1.95;;;;;;;4.96;63.19629;94578.59;;;;
2021/03/11 05:08:49;;;;;;;3;1.95;;;;;;;4.96;63.19629;94578.59;;;;
2021/03/11 05:09:49;;;;;;;3;1.95;;;;;;;4.96;63.19629;94578.59;;;;
2021/03/11 05:10:50;;;;;;;3;1.95;;;;;;;4.96;63.19629;94578.59;;;;
2021/03/11 05:11:50;;;;;;;3;1.95;;;;;;;4.96;63.19629;94578.59;;;;
2021/03/11 05:12:51;;;;;;;3;1.95;;;;;;;4.96;63.19629;94578.59;;;;
2021/03/11 05:13:52;;;;;;;3;1.95;;;;;;;4.96;63.19629;94578.59;;;;
2021/03/11 05:14:52;;;;;;;3;1.95;;;;;;;4.96;63.19629;94578.59;;;;
2021/03/11 05:15:53;;;;;;;3;1.95;;;;;;;4.96;63.19629;94578.59;;;;
2021/03/11 05:16:53;;;;;;;2.15;1.75;;;;;;;5.15;62.46191;94569.97;;;;
2021/03/11 05:17:54;;;;;;;2.15;1.75;;;;;;;5.15;62.46191;94569.97;;;;
2021/03/11 05:18:55;;;;;;;2.15;1.75;;;;;;;5.15;62.46191;94569.97;;;;
2021/03/11 05:19:55;;;;;;;2.15;1.75;;;;;;;5.15;62.46191;94569.97;;;;
2021/03/11 05:20:56;;;;;;;2.15;1.75;;;;;;;5.15;62.46191;94569.97;;;;
2021/03/11 05:21:56;;;;;;;2.15;1.75;;;;;;;5.15;62.46191;94569.97;;;;
2021/03/11 05:22:59;;;;;;;2.15;1.75;;;;;;;5.15;62.46191;94569.97;;;;
2021/03/11 05:23:59;;;;;;;2.15;1.75;;;;;;;5.15;62.46191;94569.97;;;;
2021/03/11 05:25:00;;;;;;;2.15;1.75;;;;;;;5.15;62.46191;94569.97;;;;
2021/03/11 05:26:00;;;;;;;2.15;1.75;;;;;;;5.15;62.46191;94569.97;;;;
2021/03/11 05:27:01;;;;;;;2.15;1.75;;;;;;;5.15;62.46191;94569.97;;;;
2021/03/11 05:28:01;;;;;;;4.55;2;;;;;;;5.22;62.01367;94561.88;;;;
2021/03/11 05:29:02;;;;;;;4.55;2;;;;;;;5.22;62.01367;94561.88;;;;
2021/03/11 05:30:03;;;;;;;4.55;2;;;;;;;5.22;62.01367;94561.88;;;;
2021/03/11 05:31:05;;;;;;;4.55;2;;;;;;;5.22;62.01367;94561.88;;;;
2021/03/11 05:32:06;;;;;;;4.55;2;;;;;;;5.22;62.01367;94561.88;;;;
2021/03/11 05:33:07;;;;;;;4.55;2;;;;;;;5.22;62.01367;94561.88;;;;
2021/03/11 05:34:07;;;;;;;4.55;2;;;;;;;5.22;62.01367;94561.88;;;;
2021/03/11 05:35:08;;;;;;;4.55;2;;;;;;;5.22;62.01367;94561.88;;;;
2021/03/11 05:36:09;;;;;;;4.55;2;;;;;;;5.22;62.01367;94561.88;;;;
2021/03/11 05:37:10;;;;;;;4.55;2;;;;;;;5.22;62.01367;94561.88;;;;
2021/03/11 05:38:10;;;;;;;4.150001;1.7;;;;;;;5.33;61.54199;94562.07;;;;
2021/03/11 05:39:11;;;;;;;4.150001;1.7;;;;;;;5.33;61.54199;94562.07;;;;
2021/03/11 05:40:12;;;;;;;4.150001;1.7;;;;;;;5.33;61.54199;94562.07;;;;
2021/03/11 05:41:13;;;;;;;4.150001;1.7;;;;;;;5.33;61.54199;94562.07;;;;
2021/03/11 05:42:14;;;;;;;4.150001;1.7;;;;;;;5.33;61.54199;94562.07;;;;
2021/03/11 05:43:18;;;;;;;4.150001;1.7;;;;;;;5.33;61.54199;94562.07;;;;
2021/03/11 05:44:19;;;;;;;4.150001;1.7;;;;;;;5.33;61.54199;94562.07;;;;
2021/03/11 05:45:20;;;;;;;4.150001;1.7;;;;;;;5.33;61.54199;94562.07;;;;
2021/03/11 05:46:20;;;;;;;4.150001;1.7;;;;;;;5.33;61.54199;94562.07;;;;
2021/03/11 05:47:22;;;;;;;4.150001;1.7;;;;;;;5.33;61.54199;94562.07;;;;
2021/03/11 05:48:23;;;;;;;4.150001;1.7;;;;;;;5.33;61.54199;94562.07;;;;
2021/03/11 05:49:26;;;;;;;3.35;1.7;;;;;;;5.35;61.18359;94553.72;;;;
2021/03/11 05:50:27;;;;;;;3.35;1.7;;;;;;;5.35;61.18359;94553.72;;;;
2021/03/11 05:51:28;;;;;;;3.35;1.7;;;;;;;5.35;61.18359;94553.72;;;;
2021/03/11 05:52:29;;;;;;;3.35;1.7;;;;;;;5.35;61.18359;94553.72;;;;
2021/03/11 05:53:29;;;;;;;3.35;1.7;;;;;;;5.35;61.18359;94553.72;;;;
2021/03/11 05:54:32;;;;;;;3.35;1.7;;;;;;;5.35;61.18359;94553.72;;;;